• Join FlightAware (Why Join?)
  • Login
  • US Flag 
03:53PM EST


 

Airport Tracker/Info


-or-


 

Live Flight TrackerFlight Track Log ✈ EJA604 ✈ 26-Apr-2013 ✈ KBHM - KCHO

Flight Track Log - Related Links

Times and Time Zones

All times are in EDT time to prevent confusion due to time zone crossing. See the EJA604 flight status page for this flight to view local times or setup timezone preferences in your user account.

Time Position Orientation Groundspeed Altitude Reporting Facility
EDT Latitude Longitude Course Direction KTS MPH feet Rate Location/Type
06:42PM 33.5575 -86.7683 216° Southwest 164 189 1,400  Level Atlanta Center
06:43PM 33.5128 -86.8069 216° Southwest 212 244 3,900 2,400 Climbing Atlanta Center
06:45PM 33.4658 -86.7531 136° Southeast 259 298 7,100 2,520 Climbing Atlanta Center
06:46PM 33.4889 -86.6542 74° East 252 290 9,900 2,640 Climbing Atlanta Center
06:47PM 33.4953 -86.5497 86° East 283 326 12,400 2,640 Climbing Atlanta Center
06:48PM 33.5061 -86.4181 84° East 338 389 15,200 2,640 Climbing Atlanta Center
06:49PM 33.5147 -86.2961 85° East 355 409 17,700 2,220 Climbing Atlanta Center
06:50PM 33.5233 -86.1744 85° East 364 419 19,700 2,100 Climbing Atlanta Center
06:51PM 33.5317 -86.0425 86° East 371 427 21,900 1,980 Climbing Atlanta Center
06:52PM 33.5400 -85.9106 86° East 382 440 23,700 1,740 Climbing Atlanta Center
06:53PM 33.5503 -85.7786 85° East 395 455 25,400 1,740 Climbing Atlanta Center
06:54PM 33.5564 -85.6417 87° East 406 467 27,200 1,500 Climbing Atlanta Center
06:55PM 33.5664 -85.5022 85° East 406 467 28,400 900 Climbing Atlanta Center
06:56PM 33.5764 -85.3578 85° East 417 480 29,000 300 Climbing Atlanta Center
06:57PM 33.5842 -85.2133 86° East 435 501 29,000  Level Atlanta Center
06:58PM 33.5936 -85.0689 85° East 435 501 29,000 660 Level Atlanta Center
06:59PM 33.6011 -84.9242 86° East 435 501 30,400 1,380 Climbing Atlanta Center
07:00PM 33.6106 -84.7847 85° East 435 501 31,800 1,500 Climbing Atlanta Center
07:01PM 33.6175 -84.6400 87° East 430 495 33,400 1,380 Climbing Atlanta Center
07:02PM 33.6264 -84.5028 86° East 423 487 34,600 780 Climbing Atlanta Center
07:03PM 33.6894 -84.3933 55° Northeast 381 438 35,000 180 Climbing Atlanta Center
07:04PM 33.7919 -84.3314 27° Northeast 363 418 35,000  Level Atlanta Center
07:05PM 33.8942 -84.2717 26° Northeast 398 458 35,000  Level Atlanta Center
07:06PM 33.9861 -84.2117 28° Northeast 387 445 35,000  Level Atlanta Center
07:07PM 34.0864 -84.1492 27° Northeast 392 451 35,000  Level Atlanta Center
07:08PM 34.1742 -84.0964 26° Northeast 392 451 35,000  Level Atlanta Center
07:09PM 34.2658 -84.0364 28° Northeast 381 438 35,000  Level Atlanta Center
07:10PM 34.3639 -83.9758 27° Northeast 386 444 35,000  Level Atlanta Center
07:11PM 34.4536 -83.9153 29° Northeast 381 438 35,000  Level Atlanta Center
07:12PM 34.5475 -83.8572 27° Northeast 381 438 35,000  Level Atlanta Center
07:13PM 34.6372 -83.8014 27° Northeast 367 422 35,000  Level Atlanta Center
07:14PM 34.7247 -83.7431 29° Northeast 362 417 35,000  Level Atlanta Center
07:15PM 34.8164 -83.6872 27° Northeast 362 417 35,000  Level Atlanta Center
07:16PM 34.9142 -83.6208 29° Northeast 362 417 35,000  Level Atlanta Center
07:17PM 35.0017 -83.5672 27° Northeast 357 411 35,000  Level Atlanta Center
07:18PM 35.0850 -83.5133 28° Northeast 357 411 35,000  Level Atlanta Center
07:19PM 35.1744 -83.4569 27° Northeast 362 417 35,000  Level Atlanta Center
07:20PM 35.2722 -83.3925 28° Northeast 362 417 35,000  Level Atlanta Center
07:21PM 35.3636 -83.3333 28° Northeast 362 417 35,000  Level Atlanta Center
07:22PM 35.4550 -83.2739 28° Northeast 362 417 35,000  Level Atlanta Center
07:23PM 35.5319 -83.2194 30° Northeast 356 410 35,000  Level Atlanta Center
07:24PM 35.6253 -83.1597 27° Northeast 351 404 35,000  Level Atlanta Center
07:25PM 35.7167 -83.1000 28° Northeast 351 404 35,000  Level Atlanta Center
07:26PM 35.8017 -83.0275 35° Northeast 364 419 35,000 -180 Level Atlanta Center
07:27PM 35.8653 -82.9139 55° Northeast 376 433 34,700 -720 Descending Atlanta Center
07:28PM 35.9331 -82.7975 54° Northeast 405 466 33,600 -900 Descending Atlanta Center
07:29PM 36.0008 -82.6811 54° Northeast 418 481 33,000 -300 Descending Atlanta Center
07:30PM 36.0661 -82.5642 55° Northeast 418 481 33,000  Level Atlanta Center
07:31PM 36.1294 -82.4553 54° Northeast 403 464 33,000  Level Atlanta Center
07:32PM 36.1906 -82.3433 56° Northeast 398 458 33,000  Level Atlanta Center
07:33PM 36.2514 -82.2339 55° Northeast 393 452 33,000  Level Atlanta Center
07:34PM 36.3144 -82.1192 56° Northeast 393 452 33,000  Level Atlanta Center
07:35PM 36.3814 -82.0042 54° Northeast 411 473 33,000 -180 Level Atlanta Center
07:36PM 36.4522 -81.8861 53° Northeast 417 480 32,700 -720 Descending Atlanta Center
07:37PM 36.5189 -81.7578 57° Northeast 429 494 31,600 -1,080 Descending Atlanta Center
07:38PM 36.5914 -81.6289 55° Northeast 446 513 30,600 -840 Descending Atlanta Center
07:39PM 36.6619 -81.5000 56° Northeast 446 513 30,000 -300 Descending Atlanta Center
07:40PM 36.7400 -81.3578 56° Northeast 451 519 30,000 -60 Level Atlanta Center
07:41PM 36.8019 -81.2311 59° Northeast 445 512 29,900 -540 Descending Atlanta Center
07:42PM 36.8742 -81.1067 54° Northeast 439 505 29,000 -360 Descending Atlanta Center
07:43PM 36.9900 -80.8967 55° Northeast 430 495 29,000  Level Washington Center
07:44PM 37.0536 -80.7761 57° Northeast 425 489 29,000  Level Washington Center
07:45PM 37.0969 -80.6386 68° East 420 483 29,000  Level Washington Center
07:46PM 37.1503 -80.5092 63° Northeast 420 483 29,000 -360 Level Washington Center
07:47PM 37.2208 -80.3700 57° Northeast 414 476 28,300 -1,320 Descending Washington Center
07:48PM 37.2864 -80.2358 58° Northeast 422 486 26,500 -1,920 Descending Washington Center
07:49PM 37.3500 -80.1039 59° Northeast 437 503 24,500 -2,040 Descending Washington Center
07:50PM 37.4131 -79.9769 58° Northeast 432 497 22,500 -1,980 Descending Washington Center
07:51PM 37.4669 -79.8700 58° Northeast 421 484 20,500 -2,160 Descending Washington Center
07:52PM 37.5300 -79.7375 59° Northeast 409 471 18,300 -2,100 Descending Washington Center
07:53PM 37.5842 -79.6225 59° Northeast 386 444 16,400 -1,620 Descending Washington Center
07:54PM 37.6381 -79.5072 59° Northeast 376 433 15,100 -720 Descending Washington Center
07:55PM 37.6939 -79.3919 59° Northeast 371 427 15,000 -60 Descending Washington Center
07:56PM 37.7450 -79.2922 57° Northeast 378 435 15,000  Level Washington Center
07:57PM 37.8028 -79.1767 58° Northeast 378 435 15,000 -600 Level Washington Center
07:58PM 37.8606 -79.0506 60° Northeast 373 429 13,900 -1,320 Descending Washington Center
07:59PM 37.9139 -78.9400 59° Northeast 368 423 12,400 -1,740 Descending Washington Center
08:00PM 37.9625 -78.8392 59° Northeast 354 407 10,500 -1,980 Descending Washington Center
08:01PM 38.0067 -78.7517 57° Northeast 320 368 8,500 -1,980 Descending Washington Center
08:02PM 38.0581 -78.6958 41° Northeast 284 327 6,600 -1,740 Descending Washington Center
08:03PM 38.1200 -78.6350 38° Northeast 279 321 5,000 -1,320 Descending Washington Center
08:04PM 38.1822 -78.5714 39° Northeast 262 302 4,000 -1,200 Descending Washington Center
08:05PM 38.2186 -78.5281 43° Northeast 210 242 2,700 -660 Descending Washington Center
08:06PM 38.2161 -78.4644 93° East 163 188 2,700 -600 Level Washington Center
08:07PM 38.1814 -78.4367 148° Southeast 135 155 1,600 -1,140 Descending Washington Center
08:09PM 38.1333 -78.4500 50° Northeast  Level FlightAware Approximate
08:16PM 38.1386 -78.4529 50° Northeast  Level Estimated
08:17PM 38.1333 -78.4500 50° Northeast  Level FlightAware Approximate
08:18PM 38.1386 -78.4529 50° Northeast  Level Estimated
08:19PM 38.1333 -78.4500 50° Northeast  Level FlightAware Approximate
08:20PM 38.1386 -78.4529 50° Northeast  Level Estimated
08:21PM 38.1333 -78.4500 50° Northeast  Level FlightAware Approximate
08:22PM 38.1386 -78.4529 50° Northeast  Level Estimated
08:23PM 38.1333 -78.4500 50° Northeast  Level FlightAware Approximate
08:24PM 38.1386 -78.4529 50° Northeast  Level Estimated